Aéroport int. de Victoria, Colombie-Britannique

Conditions des dernières 24 heures

Date / Heure
(HNP)
Conditions Temp
(°F)
Humidité
(%)
Point de rosée
(°F)
Vent
(mph)
Pression (pouces) Visibilité
(miles)
28 février 2015
11:00 Ensoleillé 50   48 31 O 6 30.2 30
10:00 Ensoleillé 48 50 30 NNE 7 30.3 30
9:00 Ensoleillé 42 69 33 ONO 9 30.2 30
8:00 Ensoleillé 37 82 32 ONO 8 30.2 30
7:00 Généralement ensoleillé 34   93 32 ONO 6 30.2 30
6:00 Généralement dégagé 37 67 27 NO 2 30.2 30
5:00 Dégagé 40 60 27 NNO 8 30.2 30
4:00 Dégagé 35 78 29 NO 6 30.2 30
3:00 Dégagé 41 59 27 N 7 30.1 30
2:00 Dégagé 41 62 29 calme 30.1 30
1:00 Dégagé 37 79 31 O 5 30.1 30
0:00 Dégagé 43 54 28 NNE 6 30.1 30
27 février 2015
23:00 Dégagé 44 50 26 NNO 6 30.0 30
22:00 Dégagé 50   35 23 NNE 16 rafale 26 30.0 30
21:00 Généralement dégagé 48 41 26 NE 15 rafale 22 30.0 30
20:00 Partiellement nuageux 47 64 35 NNE 8 29.9 30
19:00 Généralement nuageux 47 74 39 NO 3 29.9 30
18:00 Généralement nuageux 47 87 43 OSO 4 29.9 30
17:00 Généralement nuageux 48 86 44 OSO 5 29.9 30
16:00 Généralement nuageux 49 74 41 NO 5 29.9 30
15:00 Généralement nuageux 50   67 39 NE 5 29.9 30
14:00 Généralement nuageux 48 77 41 N 7 29.9 30
13:00 Pluie faible 48 76 41 N 4 29.8 30
12:00 Pluie faible 46 83 42 NNO 3 29.9 20
11:00 Généralement nuageux 46 82 41 NNO 8 29.8 20
N.D. non disponible
↑ température la plus haute
↓ température la plus basse

Si vous désirez plus de données historiques sur les conditions météo, s.v.p. visitez Données climatologiques en ligne.

Ce que nous faisons

Date de modification :